Darstellungsparameter: Aktuell verwendete Einstellungen:
Skalierung der Graphiken ... ?
xyx+y,   Skalierungsfaktor:      Skalierung: Modus: x, Faktor: 1
Darstellungszeitraum ... ?
Vom - - bis: - -   Zeitraum: 31.08.2020 - 31.08.2020
Min/Max/Avg-Anzeige ... ?
Zeige MMA aktuell
Zeige MMA Monat
Zeige MMA alles
Zeige --A aktuell
Zeige --A Monat
Zeige --A alles
Keine MMA-Anzeige
MMA:
Keine MMA-Graphiken
MMA-Basis: 31.08.2020 - 31.08.2020
Quicknavigation für Darstellung... ?
Tage:      1T, 2T, 3T, 5T -1T -2T -3T -5T +1T +2T +3T +5T
Wochen: 1W, 2W, 3W -1W -2W -3W +1W +2W +3W
Monate: 1M, 3M, 6M -1M -3M -6M +1M +3M +6M
Jahre:    1J, 3J, 5J, 10J -1J -3J -5J -10J +1J +3J +5J +10J
Nutze für die Darstellung ... ?
Originaldaten oder Mittelwerte auf ...
Stundenbasis Tagesbasis Wochenbasis
Monatsbasis Jahresbasis      Datenbasis: Original-Daten
Darstellen als:
Statistik (Auto) Statistik J:M      Darstellung:
Zur Graphik,    zurück zur Übersicht aller Sensoren.
 
Tabellarische Datenbersicht: ?
 
Sensor: Nr:Datum:Temp:Feuchte:Taupunkt:
Aussen-T/F 1 31-08-2020 00:00:00 16.4 C 81 % 13.13 C
2 31-08-2020 00:05:00 16.3 C 81 % 13.04 C
3 31-08-2020 00:10:00 16.2 C 81 % 12.94 C
4 31-08-2020 00:15:00 16.2 C 82 % 13.13 C
5 31-08-2020 00:20:00 16.1 C 82 % 13.03 C
6 31-08-2020 00:25:00 16.1 C 82 % 13.03 C
7 31-08-2020 00:30:00 16.1 C 82 % 13.03 C
8 31-08-2020 00:35:00 16 C 82 % 12.93 C
9 31-08-2020 00:40:00 15.9 C 83 % 13.02 C
10 31-08-2020 00:45:00 15.9 C 83 % 13.02 C
11 31-08-2020 00:50:00 15.8 C 83 % 12.92 C
12 31-08-2020 00:55:00 15.8 C 83 % 12.92 C
13 31-08-2020 01:00:00 15.7 C 84 % 13.01 C
14 31-08-2020 01:05:00 15.7 C 84 % 13.01 C
15 31-08-2020 01:10:00 15.7 C 85 % 13.19 C
16 31-08-2020 01:15:00 15.7 C 85 % 13.19 C
17 31-08-2020 01:20:00 15.7 C 85 % 13.19 C
18 31-08-2020 01:25:00 15.7 C 85 % 13.19 C
19 31-08-2020 01:30:00 15.7 C 86 % 13.37 C
20 31-08-2020 01:35:00 15.8 C 85 % 13.28 C
21 31-08-2020 01:40:00 15.8 C 85 % 13.28 C
22 31-08-2020 01:45:00 15.7 C 85 % 13.19 C
23 31-08-2020 01:50:00 15.7 C 85 % 13.19 C
24 31-08-2020 01:55:00 15.6 C 85 % 13.09 C
25 31-08-2020 02:00:00 15.6 C 85 % 13.09 C
Sensor: Nr:Datum:Temp:Feuchte:Taupunkt:
Aussen-T/F 26 31-08-2020 02:05:00 15.4 C 85 % 12.89 C
27 31-08-2020 02:10:00 15.4 C 86 % 13.07 C
28 31-08-2020 02:15:00 15.4 C 86 % 13.07 C
29 31-08-2020 02:20:00 15.4 C 86 % 13.07 C
30 31-08-2020 02:25:00 15.4 C 87 % 13.25 C
31 31-08-2020 02:30:00 15.4 C 87 % 13.25 C
32 31-08-2020 02:35:00 15.4 C 87 % 13.25 C
33 31-08-2020 02:40:00 15.5 C 87 % 13.35 C
34 31-08-2020 02:45:00 15.5 C 87 % 13.35 C
35 31-08-2020 02:50:00 15.6 C 87 % 13.45 C
36 31-08-2020 02:55:00 15.6 C 87 % 13.45 C
37 31-08-2020 03:00:00 15.5 C 86 % 13.17 C
38 31-08-2020 03:05:00 15.4 C 86 % 13.07 C
39 31-08-2020 03:10:00 15.3 C 86 % 12.97 C
40 31-08-2020 03:15:00 15.2 C 85 % 12.7 C
41 31-08-2020 03:20:00 15 C 85 % 12.5 C
42 31-08-2020 03:25:00 14.8 C 86 % 12.48 C
43 31-08-2020 03:30:00 14.5 C 86 % 12.19 C
44 31-08-2020 03:35:00 14.3 C 86 % 11.99 C
45 31-08-2020 03:40:00 14.2 C 87 % 12.07 C
46 31-08-2020 03:45:00 14 C 88 % 12.05 C
47 31-08-2020 03:50:00 13.9 C 88 % 11.95 C
48 31-08-2020 03:55:00 13.8 C 88 % 11.85 C
49 31-08-2020 04:00:00 13.8 C 89 % 12.02 C
50 31-08-2020 04:05:00 13.8 C 89 % 12.02 C
Sensor: Nr:Datum:Temp:Feuchte:Taupunkt:
Aussen-T/F 51 31-08-2020 04:10:00 13.8 C 90 % 12.19 C
52 31-08-2020 04:15:00 13.8 C 90 % 12.19 C
53 31-08-2020 04:20:00 13.8 C 90 % 12.19 C
54 31-08-2020 04:25:00 13.8 C 90 % 12.19 C
55 31-08-2020 04:30:00 13.8 C 90 % 12.19 C
56 31-08-2020 04:35:00 13.7 C 89 % 11.92 C
57 31-08-2020 04:40:00 13.7 C 89 % 11.92 C
58 31-08-2020 04:45:00 13.6 C 89 % 11.82 C
59 31-08-2020 04:50:00 13.6 C 90 % 11.99 C
60 31-08-2020 04:55:00 13.5 C 90 % 11.89 C
61 31-08-2020 05:00:00 13.4 C 90 % 11.79 C
62 31-08-2020 05:05:00 13.4 C 90 % 11.79 C
63 31-08-2020 05:10:00 13.3 C 90 % 11.7 C
64 31-08-2020 05:15:00 13.2 C 90 % 11.6 C
65 31-08-2020 05:20:00 13.2 C 90 % 11.6 C
66 31-08-2020 05:25:00 13.1 C 91 % 11.67 C
67 31-08-2020 05:30:00 13.2 C 91 % 11.76 C
68 31-08-2020 05:35:00 13.1 C 91 % 11.67 C
69 31-08-2020 05:40:00 13.1 C 91 % 11.67 C
70 31-08-2020 05:45:00 13.1 C 91 % 11.67 C
71 31-08-2020 05:50:00 12.9 C 91 % 11.47 C
72 31-08-2020 05:55:00 12.9 C 91 % 11.47 C
73 31-08-2020 06:00:00 12.9 C 92 % 11.63 C
74 31-08-2020 06:05:00 12.8 C 92 % 11.53 C
75 31-08-2020 06:10:00 12.8 C 92 % 11.53 C
Sensor: Nr:Datum:Temp:Feuchte:Taupunkt:
Aussen-T/F 76 31-08-2020 06:15:00 12.8 C 92 % 11.53 C
77 31-08-2020 06:20:00 12.7 C 92 % 11.43 C
78 31-08-2020 06:25:00 12.6 C 92 % 11.34 C
79 31-08-2020 06:30:00 12.6 C 92 % 11.34 C
80 31-08-2020 06:35:00 12.6 C 92 % 11.34 C
81 31-08-2020 06:40:00 12.6 C 93 % 11.5 C
82 31-08-2020 06:45:00 12.7 C 93 % 11.6 C
83 31-08-2020 06:50:00 12.7 C 93 % 11.6 C
84 31-08-2020 06:55:00 12.7 C 93 % 11.6 C
85 31-08-2020 07:00:00 12.8 C 93 % 11.7 C
86 31-08-2020 07:05:00 12.8 C 93 % 11.7 C
87 31-08-2020 07:10:00 12.9 C 93 % 11.8 C
88 31-08-2020 07:15:00 13 C 94 % 12.06 C
89 31-08-2020 07:20:00 13.1 C 94 % 12.16 C
90 31-08-2020 07:25:00 13.2 C 94 % 12.26 C
91 31-08-2020 07:30:00 13.3 C 93 % 12.19 C
92 31-08-2020 07:35:00 13.3 C 94 % 12.36 C
93 31-08-2020 07:40:00 13.4 C 93 % 12.29 C
94 31-08-2020 07:45:00 13.4 C 93 % 12.29 C
95 31-08-2020 07:50:00 13.5 C 93 % 12.39 C
96 31-08-2020 07:55:00 13.6 C 93 % 12.49 C
97 31-08-2020 08:00:00 13.7 C 93 % 12.59 C
98 31-08-2020 08:05:00 13.8 C 93 % 12.69 C
99 31-08-2020 08:10:00 13.8 C 93 % 12.69 C
100 31-08-2020 08:15:00 13.9 C 93 % 12.79 C
Sensor: Nr:Datum:Temp:Feuchte:Taupunkt:
Aussen-T/F 101 31-08-2020 08:20:00 14 C 93 % 12.89 C
102 31-08-2020 08:25:00 14.1 C 92 % 12.82 C
103 31-08-2020 08:30:00 14.3 C 92 % 13.02 C
104 31-08-2020 08:35:00 14.4 C 92 % 13.12 C
105 31-08-2020 08:40:00 14.5 C 92 % 13.22 C
106 31-08-2020 08:45:00 14.7 C 91 % 13.25 C
107 31-08-2020 08:50:00 14.8 C 90 % 13.18 C
108 31-08-2020 08:55:00 14.9 C 90 % 13.28 C
109 31-08-2020 09:00:00 15 C 90 % 13.37 C
110 31-08-2020 09:05:00 15.1 C 89 % 13.3 C
111 31-08-2020 09:10:00 15.2 C 89 % 13.4 C
112 31-08-2020 09:15:00 15.3 C 89 % 13.5 C
113 31-08-2020 09:20:00 15.4 C 89 % 13.6 C
114 31-08-2020 09:25:00 15.4 C 89 % 13.6 C
115 31-08-2020 09:30:00 15.6 C 89 % 13.79 C
116 31-08-2020 09:35:00 15.7 C 88 % 13.72 C
117 31-08-2020 09:40:00 15.8 C 88 % 13.82 C
118 31-08-2020 09:45:00 15.9 C 88 % 13.92 C
119 31-08-2020 09:50:00 16 C 88 % 14.01 C
120 31-08-2020 09:55:00 16.2 C 87 % 14.03 C
121 31-08-2020 10:00:00 16.2 C 87 % 14.03 C
122 31-08-2020 10:05:00 16.3 C 87 % 14.13 C
123 31-08-2020 10:10:00 16.4 C 86 % 14.05 C
124 31-08-2020 10:15:00 16.4 C 86 % 14.05 C
125 31-08-2020 10:20:00 16.5 C 86 % 14.15 C
Sensor: Nr:Datum:Temp:Feuchte:Taupunkt:
Aussen-T/F 126 31-08-2020 10:25:00 16.6 C 86 % 14.25 C
127 31-08-2020 10:30:00 16.6 C 85 % 14.07 C
128 31-08-2020 10:35:00 16.7 C 85 % 14.17 C
129 31-08-2020 10:40:00 16.8 C 84 % 14.08 C
130 31-08-2020 10:45:00 16.8 C 84 % 14.08 C
131 31-08-2020 10:50:00 16.9 C 84 % 14.18 C
132 31-08-2020 10:55:00 17 C 83 % 14.09 C
133 31-08-2020 11:00:00 17.1 C 83 % 14.19 C
134 31-08-2020 11:05:00 17.2 C 82 % 14.1 C
135 31-08-2020 11:10:00 17.3 C 82 % 14.2 C
136 31-08-2020 11:15:00 17.4 C 81 % 14.11 C
137 31-08-2020 11:20:00 17.4 C 82 % 14.3 C
138 31-08-2020 11:25:00 17.6 C 80 % 14.11 C
139 31-08-2020 11:30:00 17.7 C 80 % 14.21 C
140 31-08-2020 11:35:00 17.7 C 80 % 14.21 C
141 31-08-2020 11:40:00 17.9 C 79 % 14.21 C
142 31-08-2020 11:45:00 18.1 C 80 % 14.6 C
143 31-08-2020 11:50:00 18.4 C 80 % 14.89 C
144 31-08-2020 11:55:00 18.7 C 78 % 14.79 C
145 31-08-2020 12:00:00 18.8 C 78 % 14.88 C
146 31-08-2020 12:05:00 18.9 C 79 % 15.18 C
147 31-08-2020 12:10:00 18.9 C 78 % 14.98 C
148 31-08-2020 12:15:00 18.9 C 79 % 15.18 C
149 31-08-2020 12:20:00 18.8 C 78 % 14.88 C
150 31-08-2020 12:25:00 18.8 C 78 % 14.88 C
Sensor: Nr:Datum:Temp:Feuchte:Taupunkt:
Aussen-T/F 151 31-08-2020 12:30:00 18.8 C 78 % 14.88 C
152 31-08-2020 12:35:00 19 C 78 % 15.08 C
153 31-08-2020 12:40:00 19.2 C 77 % 15.07 C
154 31-08-2020 12:45:00 19.2 C 76 % 14.87 C
155 31-08-2020 12:50:00 19.1 C 76 % 14.77 C
156 31-08-2020 12:55:00 19.1 C 76 % 14.77 C
157 31-08-2020 13:00:00 19.1 C 77 % 14.97 C
158 31-08-2020 13:05:00 19.3 C 77 % 15.17 C
159 31-08-2020 13:10:00 19.4 C 76 % 15.06 C
160 31-08-2020 13:15:00 19.6 C 76 % 15.26 C
161 31-08-2020 13:20:00 19.7 C 76 % 15.35 C
162 31-08-2020 13:25:00 19.7 C 75 % 15.15 C
163 31-08-2020 13:30:00 19.7 C 74 % 14.94 C
164 31-08-2020 13:35:00 19.7 C 74 % 14.94 C
165 31-08-2020 13:40:00 19.6 C 75 % 15.05 C
166 31-08-2020 13:45:00 19.6 C 75 % 15.05 C
167 31-08-2020 13:50:00 19.6 C 75 % 15.05 C
168 31-08-2020 13:55:00 19.6 C 74 % 14.84 C
169 31-08-2020 14:00:00 19.6 C 75 % 15.05 C
170 31-08-2020 14:05:00 19.7 C 75 % 15.15 C
171 31-08-2020 14:10:00 19.7 C 75 % 15.15 C
172 31-08-2020 14:15:00 19.4 C 74 % 14.65 C
173 31-08-2020 14:20:00 19.1 C 77 % 14.97 C
174 31-08-2020 14:25:00 18.6 C 82 % 15.47 C
175 31-08-2020 14:30:00 18.2 C 84 % 15.45 C
Sensor: Nr:Datum:Temp:Feuchte:Taupunkt:
Aussen-T/F 176 31-08-2020 14:35:00 17.9 C 85 % 15.34 C
177 31-08-2020 14:40:00 17.6 C 87 % 15.41 C
178 31-08-2020 14:45:00 17.2 C 88 % 15.2 C
179 31-08-2020 14:50:00 16.9 C 89 % 15.08 C
180 31-08-2020 14:55:00 16.7 C 89 % 14.88 C
181 31-08-2020 15:00:00 16.6 C 90 % 14.95 C
182 31-08-2020 15:05:00 16.4 C 90 % 14.76 C
183 31-08-2020 15:10:00 16.3 C 91 % 14.83 C
184 31-08-2020 15:15:00 16.2 C 91 % 14.73 C
185 31-08-2020 15:20:00 16.2 C 91 % 14.73 C
186 31-08-2020 15:25:00 16.3 C 92 % 15 C
187 31-08-2020 15:30:00 16.3 C 92 % 15 C
188 31-08-2020 15:35:00 16.3 C 93 % 15.17 C
189 31-08-2020 15:40:00 16.4 C 93 % 15.27 C
190 31-08-2020 15:45:00 16.4 C 92 % 15.1 C
191 31-08-2020 15:50:00 16.3 C 92 % 15 C
192 31-08-2020 15:55:00 16.5 C 93 % 15.36 C
193 31-08-2020 16:00:00 16.6 C 93 % 15.46 C
194 31-08-2020 16:05:00 16.6 C 93 % 15.46 C
195 31-08-2020 16:10:00 16.5 C 92 % 15.2 C
196 31-08-2020 16:15:00 16.6 C 93 % 15.46 C
197 31-08-2020 16:20:00 16.8 C 93 % 15.66 C
198 31-08-2020 16:25:00 16.9 C 93 % 15.76 C
199 31-08-2020 16:30:00 16.9 C 92 % 15.59 C
200 31-08-2020 16:35:00 16.8 C 92 % 15.49 C
Sensor: Nr:Datum:Temp:Feuchte:Taupunkt:
Aussen-T/F 201 31-08-2020 16:40:00 16.8 C 92 % 15.49 C
202 31-08-2020 16:45:00 16.8 C 92 % 15.49 C
203 31-08-2020 16:50:00 16.8 C 92 % 15.49 C
204 31-08-2020 16:55:00 16.8 C 92 % 15.49 C
205 31-08-2020 17:00:00 16.8 C 92 % 15.49 C
206 31-08-2020 17:05:00 16.7 C 92 % 15.39 C
207 31-08-2020 17:10:00 16.6 C 92 % 15.3 C
208 31-08-2020 17:15:00 16.5 C 92 % 15.2 C
209 31-08-2020 17:20:00 16.4 C 92 % 15.1 C
210 31-08-2020 17:25:00 16.3 C 92 % 15 C
211 31-08-2020 17:30:00 16.3 C 93 % 15.17 C
212 31-08-2020 17:35:00 16.2 C 93 % 15.07 C
213 31-08-2020 17:40:00 16.3 C 93 % 15.17 C
214 31-08-2020 17:45:00 16.3 C 93 % 15.17 C
215 31-08-2020 17:50:00 16.2 C 93 % 15.07 C
216 31-08-2020 17:55:00 16.2 C 93 % 15.07 C
217 31-08-2020 18:00:00 16.2 C 93 % 15.07 C
218 31-08-2020 18:05:00 16.1 C 94 % 15.13 C
219 31-08-2020 18:10:00 16.1 C 93 % 14.97 C
220 31-08-2020 18:15:00 16 C 94 % 15.03 C
221 31-08-2020 18:20:00 16 C 94 % 15.03 C
222 31-08-2020 18:25:00 16 C 94 % 15.03 C
223 31-08-2020 18:30:00 16 C 94 % 15.03 C
224 31-08-2020 18:35:00 16 C 94 % 15.03 C
225 31-08-2020 18:40:00 16 C 94 % 15.03 C
Sensor: Nr:Datum:Temp:Feuchte:Taupunkt:
Aussen-T/F 226 31-08-2020 18:45:00 16 C 93 % 14.87 C
227 31-08-2020 18:50:00 15.9 C 93 % 14.77 C
228 31-08-2020 18:55:00 16 C 94 % 15.03 C
229 31-08-2020 19:00:00 16 C 94 % 15.03 C
230 31-08-2020 19:05:00 16 C 94 % 15.03 C
231 31-08-2020 19:10:00 16 C 94 % 15.03 C
232 31-08-2020 19:15:00 15.9 C 94 % 14.94 C
233 31-08-2020 19:20:00 15.8 C 93 % 14.67 C
234 31-08-2020 19:25:00 15.7 C 93 % 14.57 C
235 31-08-2020 19:30:00 15.5 C 93 % 14.37 C
236 31-08-2020 19:35:00 15.4 C 93 % 14.27 C
237 31-08-2020 19:40:00 15.3 C 93 % 14.18 C
238 31-08-2020 19:45:00 15.2 C 94 % 14.24 C
239 31-08-2020 19:50:00 15.2 C 94 % 14.24 C
240 31-08-2020 19:55:00 15.2 C 94 % 14.24 C
241 31-08-2020 20:00:00 15.2 C 94 % 14.24 C
242 31-08-2020 20:05:00 15.2 C 94 % 14.24 C
243 31-08-2020 20:10:00 15.1 C 94 % 14.14 C
244 31-08-2020 20:15:00 15.1 C 94 % 14.14 C
245 31-08-2020 20:20:00 14.9 C 94 % 13.94 C
246 31-08-2020 20:25:00 14.9 C 94 % 13.94 C
247 31-08-2020 20:30:00 14.8 C 94 % 13.84 C
248 31-08-2020 20:35:00 14.8 C 94 % 13.84 C
249 31-08-2020 20:40:00 14.8 C 94 % 13.84 C
250 31-08-2020 20:45:00 14.8 C 94 % 13.84 C
Sensor: Nr:Datum:Temp:Feuchte:Taupunkt:
Aussen-T/F 251 31-08-2020 20:50:00 14.7 C 94 % 13.74 C
252 31-08-2020 20:55:00 14.7 C 95 % 13.91 C
253 31-08-2020 21:00:00 14.7 C 95 % 13.91 C
254 31-08-2020 21:05:00 14.7 C 95 % 13.91 C
255 31-08-2020 21:10:00 14.7 C 95 % 13.91 C
256 31-08-2020 21:15:00 14.7 C 95 % 13.91 C
257 31-08-2020 21:20:00 14.6 C 95 % 13.81 C
258 31-08-2020 21:25:00 14.6 C 95 % 13.81 C
259 31-08-2020 21:30:00 14.6 C 95 % 13.81 C
260 31-08-2020 21:35:00 14.5 C 95 % 13.71 C
261 31-08-2020 21:40:00 14.5 C 95 % 13.71 C
262 31-08-2020 21:45:00 14.4 C 95 % 13.61 C
263 31-08-2020 21:50:00 14.4 C 95 % 13.61 C
264 31-08-2020 21:55:00 14.4 C 95 % 13.61 C
265 31-08-2020 22:00:00 14.4 C 95 % 13.61 C
266 31-08-2020 22:05:00 14.5 C 95 % 13.71 C
267 31-08-2020 22:10:00 14.5 C 95 % 13.71 C
268 31-08-2020 22:15:00 14.6 C 95 % 13.81 C
269 31-08-2020 22:20:00 14.6 C 95 % 13.81 C
270 31-08-2020 22:25:00 14.6 C 95 % 13.81 C
271 31-08-2020 22:30:00 14.6 C 95 % 13.81 C
272 31-08-2020 22:35:00 14.5 C 95 % 13.71 C
273 31-08-2020 22:40:00 14.4 C 95 % 13.61 C
274 31-08-2020 22:45:00 14.4 C 96 % 13.77 C
275 31-08-2020 22:50:00 14.4 C 96 % 13.77 C
Sensor: Nr:Datum:Temp:Feuchte:Taupunkt:
Aussen-T/F 276 31-08-2020 22:55:00 14.4 C 96 % 13.77 C
277 31-08-2020 23:00:00 14.4 C 96 % 13.77 C
278 31-08-2020 23:05:00 14.5 C 96 % 13.87 C
279 31-08-2020 23:10:00 14.6 C 96 % 13.97 C
280 31-08-2020 23:15:00 14.6 C 96 % 13.97 C
281 31-08-2020 23:20:00 14.6 C 96 % 13.97 C
282 31-08-2020 23:25:00 14.5 C 96 % 13.87 C
283 31-08-2020 23:30:00 14.5 C 96 % 13.87 C
284 31-08-2020 23:35:00 14.4 C 96 % 13.77 C
285 31-08-2020 23:40:00 14.4 C 96 % 13.77 C
286 31-08-2020 23:45:00 14.4 C 96 % 13.77 C
287 31-08-2020 23:50:00 14.3 C 96 % 13.67 C
288 31-08-2020 23:55:00 14.3 C 96 % 13.67 C

Legende:
   Min
   Max


Maximal/Minimal-Werte vom 31.08.2020 - 31.08.2020

Sensor Min Max Avg
Temp
(Aussen-T/F)
12.6 °C
31-08-2020  06:25:00
19.7 °C
31-08-2020  13:20:00
15.63 °C
Feuchte
(Aussen-T/F)
74 %
31-08-2020  13:30:00
96 %
31-08-2020  22:45:00
88.78 %
Taupunkt
(Aussen-T/F)
11.34 C
31-08-2020  06:25:00
15.76 C
31-08-2020  16:25:00
13.7 C

Die Daten stammen von einer Davis Vantage Pro 2 Wetter-Station und werden unter Linux mit der Software wview2wettercgi und aufbereitet. Alle Angaben erfolgen ohne Gewähr für ihre Vollständigkeit oder Richtigkeit.
Kontakt: Rainer Krienke krienke@uni-koblenz.de . Meine Webseiten an der Uni Koblenz oder privat.
Version: $Revision: 0.78 $